createdAt,value
2023-03-18T00:02:11.239Z,11.13
2023-03-18T00:04:37.984Z,11.10
2023-03-18T00:07:04.536Z,11.07
2023-03-18T00:09:31.151Z,11.03
2023-03-18T00:11:58.100Z,11.00
2023-03-18T00:14:24.718Z,10.93
2023-03-18T00:16:51.274Z,10.87
2023-03-18T00:19:18.653Z,10.83
2023-03-18T00:21:45.228Z,10.77
2023-03-18T00:24:12.337Z,10.68
2023-03-18T00:26:39.385Z,10.61
2023-03-18T00:29:05.904Z,10.53
2023-03-18T00:31:32.630Z,10.47
2023-03-18T00:33:59.392Z,10.40
2023-03-18T00:36:26.368Z,10.33
2023-03-18T00:39:03.189Z,10.27
2023-03-18T00:41:33.033Z,10.19
2023-03-18T00:43:59.513Z,10.14
2023-03-18T00:46:29.167Z,10.14
2023-03-18T00:49:00.313Z,10.14
2023-03-18T00:51:30.120Z,10.14
2023-03-18T00:53:59.050Z,10.15
2023-03-18T00:56:28.245Z,10.15
2023-03-18T00:58:55.209Z,10.12
2023-03-18T01:01:22.378Z,10.13
2023-03-18T01:03:50.147Z,10.14
2023-03-18T01:06:26.420Z,10.17
2023-03-18T01:08:53.729Z,10.18
2023-03-18T01:11:20.243Z,10.14
2023-03-18T01:13:47.547Z,10.11
2023-03-18T01:16:14.685Z,10.10
2023-03-18T01:18:42.125Z,10.08
2023-03-18T01:21:10.226Z,10.07
2023-03-18T01:23:37.918Z,10.06
2023-03-18T01:26:05.238Z,10.03
2023-03-18T01:28:32.540Z,10.04
2023-03-18T01:30:59.075Z,10.05
2023-03-18T01:33:25.817Z,10.04
2023-03-18T01:35:57.574Z,10.04
2023-03-18T01:38:25.955Z,10.04
2023-03-18T01:40:54.557Z,10.03
2023-03-18T01:43:24.930Z,10.02
2023-03-18T01:45:54.192Z,10.03
2023-03-18T01:48:24.058Z,10.02
2023-03-18T01:50:59.349Z,10.00
2023-03-18T01:53:36.761Z,9.99
2023-03-18T01:56:04.200Z,9.96
2023-03-18T01:58:41.875Z,9.94
2023-03-18T02:01:27.706Z,9.94
2023-03-18T02:03:55.536Z,9.93
2023-03-18T02:06:22.699Z,9.92
2023-03-18T02:08:49.734Z,9.90
2023-03-18T02:11:16.584Z,9.87
2023-03-18T02:13:45.609Z,9.88
2023-03-18T02:16:28.222Z,9.88
2023-03-18T02:19:02.942Z,9.88
2023-03-18T02:21:42.576Z,9.88
2023-03-18T02:24:31.304Z,9.89
2023-03-18T02:27:00.317Z,9.90
2023-03-18T02:29:31.206Z,9.89
2023-03-18T02:32:01.379Z,9.89
2023-03-18T02:34:29.615Z,9.87
2023-03-18T02:36:57.285Z,9.85
2023-03-18T02:39:24.071Z,9.83
2023-03-18T02:41:50.809Z,9.80
2023-03-18T02:44:19.486Z,9.79
2023-03-18T02:47:15.372Z,9.80
2023-03-18T02:49:41.921Z,9.80
2023-03-18T02:52:08.827Z,9.79
2023-03-18T02:54:35.287Z,9.78
2023-03-18T02:57:02.950Z,9.78
2023-03-18T02:59:29.679Z,9.78
2023-03-18T03:01:56.265Z,9.74
2023-03-18T03:04:25.592Z,9.70
2023-03-18T03:06:54.049Z,9.71
2023-03-18T03:09:21.907Z,9.68
2023-03-18T03:11:49.446Z,9.67
2023-03-18T03:14:16.721Z,9.69
2023-03-18T03:16:43.802Z,9.70
2023-03-18T03:19:10.923Z,9.71
2023-03-18T03:21:38.014Z,9.71
2023-03-18T03:24:06.175Z,9.72
2023-03-18T03:26:33.591Z,9.72
2023-03-18T03:29:00.665Z,9.71
2023-03-18T03:31:27.411Z,9.72
2023-03-18T03:33:54.013Z,9.75
2023-03-18T03:36:20.655Z,9.79
2023-03-18T03:38:47.270Z,9.82
2023-03-18T03:41:15.799Z,9.86
2023-03-18T03:43:43.186Z,9.86
2023-03-18T03:46:10.938Z,9.87
2023-03-18T03:48:39.425Z,9.88
2023-03-18T03:51:07.087Z,9.88
2023-03-18T03:53:34.205Z,9.87
2023-03-18T03:56:01.043Z,9.88
2023-03-18T03:58:28.091Z,9.89
2023-03-18T04:00:54.612Z,9.89
2023-03-18T04:03:21.361Z,9.91
2023-03-18T04:05:48.124Z,9.93
2023-03-18T04:08:14.760Z,9.93
2023-03-18T04:10:41.489Z,9.94
2023-03-18T04:13:08.850Z,9.95
2023-03-18T04:15:35.358Z,9.95
2023-03-18T04:18:06.983Z,9.96
2023-03-18T04:20:35.364Z,9.99
2023-03-18T04:23:02.612Z,10.00
2023-03-18T04:25:30.151Z,10.03
2023-03-18T04:27:57.388Z,10.02
2023-03-18T04:30:25.585Z,10.02
2023-03-18T04:32:52.647Z,10.01
2023-03-18T04:35:19.764Z,10.00
2023-03-18T04:37:46.283Z,9.99
2023-03-18T04:40:12.959Z,9.98
2023-03-18T04:42:39.606Z,9.98
2023-03-18T04:45:07.250Z,9.97
2023-03-18T04:47:35.740Z,9.96
2023-03-18T04:50:04.478Z,9.96
2023-03-18T04:52:31.499Z,9.98
2023-03-18T04:54:58.198Z,9.98
2023-03-18T04:57:25.117Z,9.98
2023-03-18T04:59:52.181Z,9.96
2023-03-18T05:02:19.478Z,9.94
2023-03-18T05:04:46.386Z,9.93
2023-03-18T05:07:15.615Z,9.92
2023-03-18T05:09:42.667Z,9.91
2023-03-18T05:12:14.995Z,9.90
2023-03-18T05:14:45.085Z,9.89
2023-03-18T05:17:15.926Z,9.87
2023-03-18T05:19:44.008Z,9.88
2023-03-18T05:22:11.696Z,9.86
2023-03-18T05:24:39.368Z,9.85
2023-03-18T05:27:06.201Z,9.84
2023-03-18T05:29:33.212Z,9.82
2023-03-18T05:31:59.750Z,9.82
2023-03-18T05:34:27.163Z,9.84
2023-03-18T05:36:53.704Z,9.84
2023-03-18T05:39:20.311Z,9.85
2023-03-18T05:41:46.808Z,9.87
2023-03-18T05:44:13.298Z,9.88
2023-03-18T05:46:39.774Z,9.88
2023-03-18T05:49:06.414Z,9.89
2023-03-18T05:51:32.909Z,9.90
2023-03-18T05:53:59.740Z,9.92
2023-03-18T05:56:26.555Z,9.95
2023-03-18T05:58:53.145Z,9.96
2023-03-18T06:01:20.281Z,9.95
2023-03-18T06:03:47.008Z,9.98
2023-03-18T06:06:13.571Z,9.99
2023-03-18T06:08:41.224Z,9.99
2023-03-18T06:11:08.129Z,10.00
2023-03-18T06:13:34.856Z,10.01
2023-03-18T06:16:01.533Z,10.03
2023-03-18T06:18:28.016Z,10.05
2023-03-18T06:20:54.573Z,10.08
2023-03-18T06:23:21.718Z,10.09
2023-03-18T06:25:49.532Z,10.09
2023-03-18T06:28:16.088Z,10.08
2023-03-18T06:30:42.643Z,10.12
2023-03-18T06:33:09.916Z,10.17
2023-03-18T06:35:36.614Z,10.23
2023-03-18T06:38:03.326Z,10.25
2023-03-18T06:40:29.878Z,10.27
2023-03-18T06:42:56.366Z,10.28
2023-03-18T06:45:23.072Z,10.31
2023-03-18T06:47:49.806Z,10.35
2023-03-18T06:50:16.638Z,10.40
2023-03-18T06:52:43.548Z,10.49
2023-03-18T06:55:10.638Z,10.55
2023-03-18T06:57:37.421Z,10.60
2023-03-18T07:00:05.183Z,10.61
2023-03-18T07:02:31.983Z,10.65
2023-03-18T07:05:00.209Z,10.72
2023-03-18T07:07:26.814Z,10.79
2023-03-18T07:09:53.349Z,10.85
2023-03-18T07:12:19.844Z,10.91
2023-03-18T07:14:47.057Z,10.94
2023-03-18T07:17:14.486Z,11.00
2023-03-18T07:19:41.942Z,11.02
2023-03-18T07:22:08.674Z,11.00
2023-03-18T07:24:36.038Z,10.95
2023-03-18T07:27:02.772Z,10.92
2023-03-18T07:29:29.268Z,10.91
2023-03-18T07:31:55.864Z,10.94
2023-03-18T07:34:24.237Z,11.13
2023-03-18T07:36:50.800Z,11.39
2023-03-18T07:39:17.292Z,11.63
2023-03-18T07:41:43.792Z,11.78
2023-03-18T07:44:10.287Z,11.95
2023-03-18T07:46:36.809Z,12.04
2023-03-18T07:49:03.509Z,12.18
2023-03-18T07:51:29.990Z,12.20
2023-03-18T07:53:56.704Z,12.18
2023-03-18T07:56:23.533Z,12.17
2023-03-18T07:58:51.060Z,12.23
2023-03-18T08:01:19.466Z,12.26
2023-03-18T08:03:47.047Z,12.37
2023-03-18T08:06:15.470Z,12.48
2023-03-18T08:08:42.964Z,12.70
2023-03-18T08:11:10.150Z,12.94
2023-03-18T08:13:38.748Z,13.07
2023-03-18T08:16:06.006Z,13.07
2023-03-18T08:18:32.793Z,13.01
2023-03-18T08:20:59.340Z,13.05
2023-03-18T08:23:25.949Z,13.20
2023-03-18T08:25:52.525Z,13.26
2023-03-18T08:28:19.509Z,13.21
2023-03-18T08:30:46.887Z,13.31
2023-03-18T08:33:13.562Z,13.40
2023-03-18T08:35:43.944Z,13.48
2023-03-18T08:38:10.510Z,13.53
2023-03-18T08:40:37.131Z,13.50
2023-03-18T08:43:03.682Z,13.53
2023-03-18T08:45:30.326Z,13.48
2023-03-18T08:47:57.028Z,13.36
2023-03-18T08:50:28.403Z,13.28
2023-03-18T08:52:57.900Z,13.30
2023-03-18T08:55:37.265Z,13.33
2023-03-18T08:58:05.563Z,13.25
2023-03-18T09:00:34.704Z,13.33
2023-03-18T09:03:01.550Z,13.49
2023-03-18T09:05:28.683Z,13.75
2023-03-18T09:07:55.437Z,13.87
2023-03-18T09:10:21.968Z,13.93
2023-03-18T09:12:49.990Z,13.69
2023-03-18T09:15:18.431Z,13.40
2023-03-18T09:18:00.144Z,13.25
2023-03-18T09:20:33.275Z,13.12
2023-03-18T09:23:00.713Z,13.32
2023-03-18T09:25:27.964Z,13.41
2023-03-18T09:27:54.456Z,13.37
2023-03-18T09:30:21.178Z,13.43
2023-03-18T09:32:47.822Z,13.25
2023-03-18T09:35:14.672Z,13.21
2023-03-18T09:37:41.239Z,13.39
2023-03-18T09:40:10.765Z,13.56
2023-03-18T09:42:56.542Z,13.71
2023-03-18T09:45:26.410Z,13.64
2023-03-18T09:48:05.753Z,13.69
2023-03-18T09:50:41.671Z,13.84
2023-03-18T09:53:16.718Z,14.16
2023-03-18T09:55:47.379Z,14.19
2023-03-18T09:58:20.356Z,14.31
2023-03-18T10:00:47.571Z,14.43
2023-03-18T10:03:29.841Z,14.56
2023-03-18T10:06:08.030Z,14.75
2023-03-18T10:08:53.020Z,14.90
2023-03-18T10:11:42.888Z,14.93
2023-03-18T10:14:45.997Z,15.11
2023-03-18T10:17:25.291Z,15.17
2023-03-18T10:19:56.146Z,15.32
2023-03-18T10:22:54.944Z,15.44
2023-03-18T10:25:27.179Z,15.51
2023-03-18T10:28:12.282Z,15.37
2023-03-18T10:30:54.852Z,15.30
2023-03-18T10:33:50.419Z,15.29
2023-03-18T10:36:31.932Z,15.57
2023-03-18T10:39:00.329Z,15.83
2023-03-18T10:41:34.412Z,16.13
2023-03-18T10:44:15.842Z,16.39
2023-03-18T10:46:44.442Z,16.35
2023-03-18T10:49:20.334Z,16.24
2023-03-18T10:51:54.716Z,16.14
2023-03-18T10:54:53.037Z,16.04
2023-03-18T10:57:21.908Z,16.17
2023-03-18T10:59:51.352Z,16.30
2023-03-18T11:02:24.989Z,16.43
2023-03-18T11:05:29.954Z,16.64
2023-03-18T11:07:59.907Z,16.66
2023-03-18T11:10:43.606Z,16.58
2023-03-18T11:13:16.820Z,16.54
2023-03-18T11:15:50.270Z,16.50
2023-03-18T11:18:21.999Z,16.40
2023-03-18T11:20:56.013Z,16.43
2023-03-18T11:23:48.919Z,16.47
2023-03-18T11:26:27.643Z,16.43
2023-03-18T11:29:10.399Z,16.40
2023-03-18T11:31:52.250Z,16.54
2023-03-18T11:34:19.853Z,16.63
2023-03-18T11:36:59.178Z,16.63
2023-03-18T11:39:27.406Z,16.63
2023-03-18T11:41:54.098Z,16.59
2023-03-18T11:44:28.938Z,16.57
2023-03-18T11:47:12.516Z,16.58
2023-03-18T11:49:39.264Z,16.50
2023-03-18T11:52:49.933Z,16.77
2023-03-18T11:55:30.966Z,16.69
2023-03-18T11:58:20.629Z,16.65
2023-03-18T12:01:00.054Z,16.60
2023-03-18T12:03:53.804Z,16.61
2023-03-18T12:06:32.737Z,16.70
2023-03-18T12:09:03.311Z,16.71
2023-03-18T12:11:57.238Z,16.86
2023-03-18T12:14:56.813Z,17.02
2023-03-18T12:20:55.553Z,17.50
2023-03-18T12:27:25.733Z,17.65
2023-03-18T12:30:06.618Z,17.59
2023-03-18T12:33:10.678Z,17.44
